createdAt,value
2022-09-06T00:00:12.411Z,21.69
2022-09-06T00:01:12.446Z,21.68
2022-09-06T00:02:12.411Z,21.66
2022-09-06T00:03:12.393Z,21.65
2022-09-06T00:04:15.448Z,21.65
2022-09-06T00:05:12.372Z,21.63
2022-09-06T00:06:12.383Z,21.63
2022-09-06T00:07:12.360Z,21.63
2022-09-06T00:08:12.374Z,21.62
2022-09-06T00:09:12.323Z,21.62
2022-09-06T00:10:12.323Z,21.63
2022-09-06T00:11:12.325Z,21.62
2022-09-06T00:12:12.302Z,21.62
2022-09-06T00:13:12.292Z,21.63
2022-09-06T00:14:12.283Z,21.62
2022-09-06T00:15:12.551Z,21.60
2022-09-06T00:16:12.381Z,21.59
2022-09-06T00:17:12.222Z,21.58
2022-09-06T00:18:12.213Z,21.54
2022-09-06T00:19:12.202Z,21.56
2022-09-06T00:20:12.193Z,21.54
2022-09-06T00:21:12.225Z,21.54
2022-09-06T00:22:12.183Z,21.54
2022-09-06T00:23:12.182Z,21.53
2022-09-06T00:24:12.188Z,21.53
2022-09-06T00:25:12.176Z,21.53
2022-09-06T00:26:12.155Z,21.53
2022-09-06T00:27:12.133Z,21.51
2022-09-06T00:28:12.164Z,21.51
2022-09-06T00:29:12.152Z,21.51
2022-09-06T00:30:12.123Z,21.51
2022-09-06T00:31:12.116Z,21.48
2022-09-06T00:32:12.094Z,21.47
2022-09-06T00:33:12.073Z,21.47
2022-09-06T00:34:12.064Z,21.47
2022-09-06T00:35:12.496Z,21.45
2022-09-06T00:36:12.026Z,21.44
2022-09-06T00:37:12.003Z,21.43
2022-09-06T00:38:11.975Z,21.43
2022-09-06T00:39:11.963Z,21.43
2022-09-06T00:40:12.032Z,21.44
2022-09-06T00:41:12.023Z,21.41
2022-09-06T00:42:11.985Z,21.43
2022-09-06T00:43:11.975Z,21.43
2022-09-06T00:44:11.944Z,21.41
2022-09-06T00:45:11.937Z,21.40
2022-09-06T00:46:12.034Z,21.41
2022-09-06T00:47:11.926Z,21.40
2022-09-06T00:48:11.919Z,21.37
2022-09-06T00:49:11.877Z,21.40
2022-09-06T00:50:11.844Z,21.37
2022-09-06T00:51:11.844Z,21.37
2022-09-06T00:52:11.829Z,21.38
2022-09-06T00:53:11.825Z,21.35
2022-09-06T00:54:11.824Z,21.33
2022-09-06T00:55:11.834Z,21.30
2022-09-06T00:56:11.774Z,21.32
2022-09-06T00:57:11.786Z,21.29
2022-09-06T00:58:11.753Z,21.26
2022-09-06T00:59:11.750Z,21.25
2022-09-06T01:00:12.656Z,21.25
2022-09-06T01:01:11.862Z,21.23
2022-09-06T01:02:11.839Z,21.23
2022-09-06T01:03:11.718Z,21.22
2022-09-06T01:04:11.685Z,21.19
2022-09-06T01:05:11.687Z,21.19
2022-09-06T01:06:11.676Z,21.17
2022-09-06T01:07:11.698Z,21.13
2022-09-06T01:08:11.658Z,21.13
2022-09-06T01:09:11.656Z,21.11
2022-09-06T01:10:11.625Z,21.11
2022-09-06T01:11:11.614Z,21.10
2022-09-06T01:12:11.616Z,21.08
2022-09-06T01:13:11.596Z,21.05
2022-09-06T01:14:11.597Z,21.05
2022-09-06T01:15:11.597Z,21.03
2022-09-06T01:16:11.658Z,21.04
2022-09-06T01:17:11.568Z,21.07
2022-09-06T01:18:11.528Z,21.03
2022-09-06T01:19:11.526Z,21.03
2022-09-06T01:20:11.525Z,21.03
2022-09-06T01:21:11.538Z,21.04
2022-09-06T01:22:11.527Z,21.04
2022-09-06T01:23:11.525Z,21.03
2022-09-06T01:24:11.497Z,21.03
2022-09-06T01:25:11.502Z,21.01
2022-09-06T01:26:11.496Z,21.04
2022-09-06T01:27:11.536Z,21.01
2022-09-06T01:28:11.482Z,21.04
2022-09-06T01:29:11.428Z,21.03
2022-09-06T01:30:11.462Z,21.03
2022-09-06T01:31:11.459Z,21.01
2022-09-06T01:32:11.387Z,21.03
2022-09-06T01:33:11.377Z,21.03
2022-09-06T01:34:11.377Z,21.00
2022-09-06T01:35:11.371Z,21.00
2022-09-06T01:36:11.327Z,20.98
2022-09-06T01:37:11.337Z,20.98
2022-09-06T01:38:11.307Z,20.96
2022-09-06T01:39:11.318Z,20.96
2022-09-06T01:40:11.621Z,20.95
2022-09-06T01:41:11.322Z,20.93
2022-09-06T01:42:11.300Z,20.95
2022-09-06T01:43:11.349Z,20.93
2022-09-06T01:44:11.249Z,20.93
2022-09-06T01:45:11.238Z,20.92
2022-09-06T01:46:11.288Z,20.92
2022-09-06T01:47:11.272Z,20.92
2022-09-06T01:48:11.567Z,20.90
2022-09-06T01:49:11.188Z,20.89
2022-09-06T01:50:11.179Z,20.88
2022-09-06T01:51:11.168Z,20.88
2022-09-06T01:52:11.168Z,20.88
2022-09-06T01:53:11.148Z,20.88
2022-09-06T01:54:11.148Z,20.86
2022-09-06T01:55:11.163Z,20.85
2022-09-06T01:56:11.158Z,20.85
2022-09-06T01:57:11.149Z,20.83
2022-09-06T01:58:11.129Z,20.83
2022-09-06T01:59:11.109Z,20.80
2022-09-06T02:00:11.118Z,20.78
2022-09-06T02:01:11.167Z,20.82
2022-09-06T02:02:11.129Z,20.78
2022-09-06T02:03:11.069Z,20.77
2022-09-06T02:04:11.059Z,20.75
2022-09-06T02:05:11.057Z,20.74
2022-09-06T02:06:11.039Z,20.74
2022-09-06T02:07:11.064Z,20.74
2022-09-06T02:08:11.021Z,20.73
2022-09-06T02:09:11.013Z,20.71
2022-09-06T02:10:11.003Z,20.74
2022-09-06T02:11:11.006Z,20.67
2022-09-06T02:12:10.989Z,20.70
2022-09-06T02:13:11.019Z,20.71
2022-09-06T02:14:10.960Z,20.74
2022-09-06T02:15:10.918Z,20.75
2022-09-06T02:16:10.911Z,20.77
2022-09-06T02:17:10.955Z,20.77
2022-09-06T02:18:10.886Z,20.78
2022-09-06T02:19:10.893Z,20.78
2022-09-06T02:20:10.940Z,20.83
2022-09-06T02:21:10.905Z,20.82
2022-09-06T02:22:10.871Z,20.80
2022-09-06T02:23:10.878Z,20.80
2022-09-06T02:24:10.850Z,20.83
2022-09-06T02:25:10.849Z,20.82
2022-09-06T02:26:10.821Z,20.85
2022-09-06T02:27:10.851Z,20.85
2022-09-06T02:28:10.791Z,20.86
2022-09-06T02:29:10.781Z,20.85
2022-09-06T02:30:10.773Z,20.86
2022-09-06T02:31:10.823Z,20.86
2022-09-06T02:32:10.831Z,20.88
2022-09-06T02:33:10.790Z,20.86
2022-09-06T02:34:10.751Z,20.86
2022-09-06T02:35:10.761Z,20.85
2022-09-06T02:36:10.731Z,20.86
2022-09-06T02:37:10.734Z,20.88
2022-09-06T02:38:10.698Z,20.89
2022-09-06T02:39:10.681Z,20.88
2022-09-06T02:40:10.767Z,20.89
2022-09-06T02:41:10.692Z,20.89
2022-09-06T02:42:10.651Z,20.90
2022-09-06T02:43:10.652Z,20.90
2022-09-06T02:44:10.642Z,20.89
2022-09-06T02:45:10.612Z,20.90
2022-09-06T02:46:10.669Z,20.92
2022-09-06T02:47:10.615Z,20.89
2022-09-06T02:48:10.574Z,20.92
2022-09-06T02:49:10.587Z,20.89
2022-09-06T02:50:10.552Z,20.89
2022-09-06T02:51:10.544Z,20.88
2022-09-06T02:52:10.552Z,20.90
2022-09-06T02:53:10.542Z,20.90
2022-09-06T02:54:10.535Z,20.86
2022-09-06T02:55:10.503Z,20.86
2022-09-06T02:56:10.483Z,20.86
2022-09-06T02:57:10.486Z,20.88
2022-09-06T02:58:10.485Z,20.89
2022-09-06T02:59:10.455Z,20.89
2022-09-06T03:00:10.462Z,20.89
2022-09-06T03:01:10.506Z,20.90
2022-09-06T03:02:10.445Z,20.90
2022-09-06T03:03:10.396Z,20.88
2022-09-06T03:04:10.363Z,20.92
2022-09-06T03:05:10.363Z,20.89
2022-09-06T03:06:10.342Z,20.89
2022-09-06T03:07:10.373Z,20.88
2022-09-06T03:08:10.326Z,20.86
2022-09-06T03:09:10.343Z,20.86
2022-09-06T03:10:10.303Z,20.88
2022-09-06T03:11:10.295Z,20.89
2022-09-06T03:12:10.314Z,20.89
2022-09-06T03:13:10.288Z,20.89
2022-09-06T03:14:10.288Z,20.88
2022-09-06T03:15:10.275Z,20.86
2022-09-06T03:16:10.303Z,20.88
2022-09-06T03:17:10.287Z,20.86
2022-09-06T03:18:10.265Z,20.88
2022-09-06T03:19:10.243Z,20.85
2022-09-06T03:20:10.214Z,20.88
2022-09-06T03:21:10.223Z,20.85
2022-09-06T03:22:10.206Z,20.86
2022-09-06T03:23:10.207Z,20.86
2022-09-06T03:24:10.194Z,20.85
2022-09-06T03:25:10.190Z,20.85
2022-09-06T03:26:10.167Z,20.83
2022-09-06T03:27:10.174Z,20.83
2022-09-06T03:28:10.104Z,20.82
2022-09-06T03:29:10.094Z,20.80
2022-09-06T03:30:10.076Z,20.83
2022-09-06T03:31:10.155Z,20.83
2022-09-06T03:32:10.075Z,20.83
2022-09-06T03:33:10.073Z,20.82
2022-09-06T03:34:11.249Z,20.78
2022-09-06T03:35:10.034Z,20.80
2022-09-06T03:36:10.014Z,20.82
2022-09-06T03:37:10.047Z,20.75
2022-09-06T03:38:09.998Z,20.78
2022-09-06T03:39:09.996Z,20.78
2022-09-06T03:40:10.044Z,20.78
2022-09-06T03:41:10.014Z,20.78
2022-09-06T03:42:09.955Z,20.78
2022-09-06T03:43:09.955Z,20.75
2022-09-06T03:44:09.935Z,20.77
2022-09-06T03:45:09.938Z,20.75
2022-09-06T03:46:09.993Z,20.75
2022-09-06T03:47:09.916Z,20.73
2022-09-06T03:48:09.918Z,20.71
2022-09-06T03:49:09.896Z,20.70
2022-09-06T03:50:09.898Z,20.70
2022-09-06T03:51:09.889Z,20.71
2022-09-06T03:52:09.857Z,20.70
2022-09-06T03:53:09.866Z,20.70
2022-09-06T03:54:09.867Z,20.70
2022-09-06T03:55:09.815Z,20.70
2022-09-06T03:56:09.824Z,20.71
2022-09-06T03:57:09.791Z,20.68
2022-09-06T03:58:09.811Z,20.68
2022-09-06T03:59:09.776Z,20.66
2022-09-06T04:00:09.792Z,20.66
2022-09-06T04:01:09.931Z,20.64
2022-09-06T04:02:09.841Z,20.60
2022-09-06T04:03:09.736Z,20.59
2022-09-06T04:04:09.697Z,20.58
2022-09-06T04:05:09.687Z,20.63
2022-09-06T04:06:09.683Z,20.60
2022-09-06T04:07:09.689Z,20.60
2022-09-06T04:08:09.707Z,20.59
2022-09-06T04:09:09.687Z,20.59
2022-09-06T04:10:09.668Z,20.58
2022-09-06T04:11:09.659Z,20.58
2022-09-06T04:12:09.636Z,20.59
2022-09-06T04:13:09.652Z,20.58
2022-09-06T04:14:09.627Z,20.58
2022-09-06T04:15:09.687Z,20.58
2022-09-06T04:16:09.650Z,20.56
2022-09-06T04:17:09.609Z,20.56
2022-09-06T04:18:09.617Z,20.55
2022-09-06T04:19:09.589Z,20.55
2022-09-06T04:20:09.567Z,20.55
2022-09-06T04:21:09.557Z,20.52
2022-09-06T04:22:09.509Z,20.52
2022-09-06T04:23:09.510Z,20.52
2022-09-06T04:24:09.488Z,20.50
2022-09-06T04:25:09.476Z,20.50
2022-09-06T04:26:09.578Z,20.49
2022-09-06T04:27:09.470Z,20.49
2022-09-06T04:28:09.478Z,20.48
2022-09-06T04:29:09.456Z,20.48
2022-09-06T04:30:09.448Z,20.46
2022-09-06T04:31:09.465Z,20.48
2022-09-06T04:32:09.476Z,20.48
2022-09-06T04:33:09.429Z,20.44
2022-09-06T04:34:09.457Z,20.42
2022-09-06T04:35:09.390Z,20.39
2022-09-06T04:36:09.381Z,20.40
2022-09-06T04:37:09.393Z,20.36
2022-09-06T04:38:09.370Z,20.37
2022-09-06T04:39:09.369Z,20.37
2022-09-06T04:40:09.436Z,20.37
2022-09-06T04:41:09.333Z,20.37
2022-09-06T04:42:09.302Z,20.37
2022-09-06T04:43:09.299Z,20.36
2022-09-06T04:44:09.301Z,20.37
2022-09-06T04:45:09.320Z,20.34
2022-09-06T04:46:09.374Z,20.33
2022-09-06T04:47:09.710Z,20.33
2022-09-06T04:48:09.250Z,20.33
2022-09-06T04:49:09.274Z,20.30
2022-09-06T04:50:09.227Z,20.30
2022-09-06T04:51:09.212Z,20.27
2022-09-06T04:52:09.590Z,20.29
2022-09-06T04:53:09.210Z,20.27
2022-09-06T04:54:09.199Z,20.27
2022-09-06T04:55:09.162Z,20.27
2022-09-06T04:56:09.158Z,20.30
2022-09-06T04:57:09.119Z,20.32
2022-09-06T04:58:09.630Z,20.27
2022-09-06T04:59:09.110Z,20.26
2022-09-06T05:00:09.139Z,20.27
2022-09-06T05:01:09.173Z,20.26
2022-09-06T05:02:09.110Z,20.29
2022-09-06T05:03:09.050Z,20.26
2022-09-06T05:04:09.030Z,20.26
2022-09-06T05:05:09.031Z,20.24
2022-09-06T05:06:09.107Z,20.22
2022-09-06T05:07:09.043Z,20.22
2022-09-06T05:08:09.011Z,20.24
2022-09-06T05:09:08.979Z,20.21
2022-09-06T05:10:08.971Z,20.24
2022-09-06T05:11:08.950Z,20.21
2022-09-06T05:12:08.960Z,20.21
2022-09-06T05:13:08.982Z,20.19
2022-09-06T05:14:09.564Z,20.18
2022-09-06T05:15:08.941Z,20.18
2022-09-06T05:16:09.093Z,20.15
2022-09-06T05:17:08.901Z,20.17
2022-09-06T05:18:11.786Z,20.15
2022-09-06T05:19:10.402Z,20.15
2022-09-06T05:20:08.901Z,20.17
2022-09-06T05:21:08.939Z,20.15
2022-09-06T05:22:08.873Z,20.14
2022-09-06T05:23:08.830Z,20.12
2022-09-06T05:24:08.821Z,20.12
2022-09-06T05:25:08.802Z,20.15
2022-09-06T05:26:08.812Z,20.14
2022-09-06T05:27:08.782Z,20.14
2022-09-06T05:28:08.800Z,20.12
2022-09-06T05:29:08.796Z,20.07
2022-09-06T05:30:08.751Z,20.03
2022-09-06T05:31:08.745Z,19.99
2022-09-06T05:32:08.839Z,19.99
2022-09-06T05:33:08.734Z,19.97
2022-09-06T05:34:08.771Z,19.99
2022-09-06T05:35:08.730Z,19.99
2022-09-06T05:36:08.737Z,19.99
2022-09-06T05:37:08.667Z,19.99
2022-09-06T05:38:08.662Z,19.99
2022-09-06T05:39:08.664Z,19.96
2022-09-06T05:40:08.791Z,19.96
2022-09-06T05:41:08.644Z,19.94
2022-09-06T05:42:08.612Z,19.96
2022-09-06T05:43:08.617Z,19.96
2022-09-06T05:44:08.586Z,19.97
2022-09-06T05:45:08.573Z,19.99
2022-09-06T05:46:08.652Z,20.00
2022-09-06T05:47:08.614Z,19.96
2022-09-06T05:48:08.592Z,19.94
2022-09-06T05:49:08.562Z,19.94
2022-09-06T05:50:08.546Z,19.94
2022-09-06T05:51:08.510Z,19.94
2022-09-06T05:52:08.515Z,19.97
2022-09-06T05:53:08.512Z,19.97
2022-09-06T05:54:08.533Z,20.03
2022-09-06T05:55:08.474Z,20.03
2022-09-06T05:56:08.466Z,20.04
2022-09-06T05:57:08.444Z,20.04
2022-09-06T05:58:08.453Z,20.07
2022-09-06T05:59:08.425Z,20.07
2022-09-06T06:00:08.474Z,20.08
2022-09-06T06:01:08.523Z,20.11
2022-09-06T06:02:08.451Z,20.11
2022-09-06T06:03:08.444Z,20.14
2022-09-06T06:04:08.364Z,20.11
2022-09-06T06:05:08.404Z,20.11
2022-09-06T06:06:08.426Z,20.07
2022-09-06T06:07:08.484Z,20.03
2022-09-06T06:08:08.354Z,20.02
2022-09-06T06:09:08.325Z,20.03
2022-09-06T06:10:08.332Z,20.08
2022-09-06T06:11:08.303Z,20.04
2022-09-06T06:12:08.299Z,20.07
2022-09-06T06:13:08.284Z,20.04
2022-09-06T06:14:08.358Z,20.07
2022-09-06T06:15:08.257Z,20.07
2022-09-06T06:16:08.346Z,20.07
2022-09-06T06:17:08.265Z,20.10
2022-09-06T06:18:08.253Z,20.11
2022-09-06T06:19:08.270Z,20.17
2022-09-06T06:20:08.243Z,20.19
2022-09-06T06:21:08.246Z,20.18
2022-09-06T06:22:08.243Z,20.18
2022-09-06T06:23:08.216Z,20.18
2022-09-06T06:24:08.179Z,20.22
2022-09-06T06:25:08.188Z,20.24
2022-09-06T06:26:08.178Z,20.26
2022-09-06T06:27:08.416Z,20.29
2022-09-06T06:28:08.115Z,20.33
2022-09-06T06:29:08.204Z,20.36
2022-09-06T06:30:08.085Z,20.36
2022-09-06T06:31:08.068Z,20.34
2022-09-06T06:32:08.685Z,20.34
2022-09-06T06:33:08.087Z,20.34
2022-09-06T06:34:08.070Z,20.36
2022-09-06T06:35:08.052Z,20.37
2022-09-06T06:36:08.055Z,20.42
2022-09-06T06:37:08.046Z,20.48
2022-09-06T06:38:08.038Z,20.52
2022-09-06T06:39:08.173Z,20.53
2022-09-06T06:40:08.050Z,20.58
2022-09-06T06:41:07.987Z,20.59
2022-09-06T06:42:08.032Z,20.55
2022-09-06T06:43:07.995Z,20.52
2022-09-06T06:44:07.967Z,20.52
2022-09-06T06:45:07.986Z,20.58
2022-09-06T06:46:08.074Z,20.66
2022-09-06T06:47:07.916Z,20.67
2022-09-06T06:48:07.886Z,20.73
2022-09-06T06:49:07.874Z,20.70
2022-09-06T06:50:07.855Z,20.73
2022-09-06T06:51:07.867Z,20.75
2022-09-06T06:52:08.800Z,20.77
2022-09-06T06:53:07.878Z,20.80
2022-09-06T06:54:07.871Z,20.83
2022-09-06T06:55:07.857Z,20.86
2022-09-06T06:56:07.842Z,20.89
2022-09-06T06:57:07.809Z,20.88
2022-09-06T06:58:07.799Z,20.86
2022-09-06T06:59:07.852Z,20.85
2022-09-06T07:00:07.787Z,20.85
2022-09-06T07:01:07.834Z,20.89
2022-09-06T07:02:07.937Z,20.89
2022-09-06T07:03:07.738Z,20.88
2022-09-06T07:04:07.962Z,20.93
2022-09-06T07:08:08.687Z,21.14
2022-09-06T07:09:07.699Z,21.15
2022-09-06T07:11:08.668Z,21.32
2022-09-06T07:12:07.648Z,21.35
2022-09-06T07:13:07.630Z,21.44
2022-09-06T07:14:07.669Z,21.50
2022-09-06T07:15:07.618Z,21.53
2022-09-06T07:16:07.656Z,21.54
2022-09-06T07:17:09.348Z,21.56
2022-09-06T07:18:07.618Z,21.69
2022-09-06T07:19:07.719Z,21.85
2022-09-06T07:20:15.360Z,21.99
2022-09-06T07:22:11.736Z,22.28
2022-09-06T07:24:09.418Z,22.63
2022-09-06T07:25:07.559Z,22.81
2022-09-06T07:26:07.602Z,22.74
2022-09-06T07:28:08.484Z,23.13
2022-09-06T07:29:07.533Z,23.28
2022-09-06T07:30:07.450Z,23.47
2022-09-06T07:33:07.429Z,23.76
2022-09-06T07:34:07.399Z,23.85
2022-09-06T07:35:07.399Z,23.94
2022-09-06T07:36:07.486Z,24.04
2022-09-06T07:37:07.370Z,24.13
2022-09-06T07:38:07.400Z,24.21
2022-09-06T07:39:07.420Z,24.32
2022-09-06T07:40:07.488Z,24.36
2022-09-06T07:41:07.370Z,24.44
2022-09-06T07:42:07.339Z,24.51
2022-09-06T07:43:07.299Z,24.56
2022-09-06T07:44:07.314Z,24.61
2022-09-06T07:45:07.293Z,24.68
2022-09-06T07:46:07.292Z,24.77
2022-09-06T07:48:08.245Z,24.93
2022-09-06T07:49:07.212Z,25.01
2022-09-06T07:51:08.203Z,25.26
2022-09-06T07:53:11.032Z,25.56
2022-09-06T07:55:08.292Z,25.66
2022-09-06T07:56:07.181Z,25.76
2022-09-06T07:57:07.159Z,25.88
2022-09-06T07:58:07.144Z,26.07
2022-09-06T07:59:07.153Z,26.15
2022-09-06T08:00:07.141Z,26.29
2022-09-06T08:01:07.165Z,26.33
2022-09-06T08:02:07.115Z,26.44
2022-09-06T08:03:07.108Z,26.53
2022-09-06T08:04:07.071Z,26.63
2022-09-06T08:09:08.012Z,26.67
2022-09-06T08:10:07.036Z,26.73
2022-09-06T08:11:07.117Z,26.83
2022-09-06T08:12:07.192Z,27.03
2022-09-06T08:13:07.011Z,27.03
2022-09-06T08:14:07.000Z,27.01
2022-09-06T08:15:06.929Z,27.04
2022-09-06T08:16:06.948Z,27.15
2022-09-06T08:17:06.897Z,27.33
2022-09-06T08:18:06.903Z,27.48
2022-09-06T08:19:06.874Z,27.72
2022-09-06T08:20:06.894Z,27.91
2022-09-06T08:21:10.258Z,28.12
2022-09-06T08:22:07.867Z,28.30
2022-09-06T08:23:06.834Z,28.45
2022-09-06T08:24:06.847Z,28.60
2022-09-06T08:25:06.903Z,28.84
2022-09-06T08:26:06.834Z,29.10
2022-09-06T08:27:06.814Z,29.37
2022-09-06T08:28:06.815Z,29.55
2022-09-06T08:29:06.811Z,29.77
2022-09-06T08:30:06.817Z,29.96
2022-09-06T08:31:06.870Z,30.13
2022-09-06T08:32:06.766Z,30.36
2022-09-06T08:33:06.766Z,30.59
2022-09-06T08:34:06.784Z,30.93
2022-09-06T08:35:06.746Z,31.18
2022-09-06T08:36:06.729Z,31.28
2022-09-06T08:37:06.708Z,31.35
2022-09-06T08:38:06.717Z,31.64
2022-09-06T08:39:06.701Z,32.04
2022-09-06T08:40:06.744Z,32.24
2022-09-06T08:41:06.666Z,32.46
2022-09-06T08:42:06.627Z,32.59
2022-09-06T08:43:06.617Z,32.49
2022-09-06T08:45:07.614Z,32.60
2022-09-06T08:46:06.598Z,32.78
2022-09-06T08:47:06.617Z,32.83
2022-09-06T08:48:06.652Z,33.00
2022-09-06T08:49:06.568Z,33.16
2022-09-06T08:50:06.598Z,33.20
2022-09-06T08:51:06.552Z,33.31
2022-09-06T08:52:06.550Z,33.40
2022-09-06T08:53:16.766Z,33.60
2022-09-06T08:54:07.820Z,33.54
2022-09-06T08:55:06.541Z,33.53
2022-09-06T08:56:06.493Z,33.76
2022-09-06T08:57:06.478Z,33.67
2022-09-06T08:58:06.489Z,33.32
2022-09-06T08:59:06.496Z,32.94
2022-09-06T09:00:06.500Z,32.93
2022-09-06T09:01:06.464Z,33.10
2022-09-06T09:02:06.517Z,33.23
2022-09-06T09:03:06.420Z,33.33
2022-09-06T09:04:06.423Z,33.31
2022-09-06T09:05:06.568Z,33.05
2022-09-06T09:06:06.452Z,32.86
2022-09-06T09:07:06.433Z,32.88
2022-09-06T09:08:06.369Z,32.82
2022-09-06T09:09:06.378Z,32.66
2022-09-06T09:10:06.353Z,32.45
2022-09-06T09:11:06.393Z,32.41
2022-09-06T09:12:06.334Z,32.39
2022-09-06T09:13:06.336Z,32.31
2022-09-06T09:14:06.312Z,32.16
2022-09-06T09:15:06.325Z,32.17
2022-09-06T09:16:06.305Z,31.95
2022-09-06T09:17:06.262Z,31.93
2022-09-06T09:18:06.227Z,31.93
2022-09-06T09:19:06.236Z,31.86
2022-09-06T09:20:06.390Z,32.07
2022-09-06T09:21:06.205Z,31.95
2022-09-06T09:22:06.194Z,31.97
2022-09-06T09:23:06.176Z,32.08
2022-09-06T09:24:06.593Z,32.37
2022-09-06T09:25:06.216Z,32.53
2022-09-06T09:26:06.215Z,32.79
2022-09-06T09:27:06.164Z,33.03
2022-09-06T09:28:06.125Z,32.93
2022-09-06T09:29:06.115Z,33.13
2022-09-06T09:31:07.467Z,33.47
2022-09-06T09:32:06.147Z,33.48
2022-09-06T09:33:06.117Z,33.57
2022-09-06T09:34:06.128Z,33.92
2022-09-06T09:35:06.077Z,34.11
2022-09-06T09:36:06.050Z,34.03
2022-09-06T09:38:11.084Z,34.47
2022-09-06T09:39:07.033Z,34.58
2022-09-06T09:40:06.351Z,34.70
2022-09-06T09:41:06.012Z,34.86
2022-09-06T09:42:05.968Z,35.18
2022-09-06T09:43:05.958Z,35.31
2022-09-06T09:44:05.948Z,35.38
2022-09-06T09:45:05.939Z,35.42
2022-09-06T09:46:06.007Z,35.25
2022-09-06T09:47:05.941Z,35.10
2022-09-06T09:48:05.910Z,35.08
2022-09-06T09:49:05.889Z,34.98
2022-09-06T09:50:05.889Z,35.08
2022-09-06T09:51:05.882Z,35.12
2022-09-06T09:52:06.170Z,34.75
2022-09-06T09:53:05.867Z,34.91
2022-09-06T09:54:06.112Z,35.20
2022-09-06T09:55:05.870Z,35.31
2022-09-06T09:56:05.844Z,35.22
2022-09-06T09:57:08.096Z,35.08
2022-09-06T09:58:06.809Z,34.96
2022-09-06T09:59:05.812Z,34.58
2022-09-06T10:00:05.822Z,34.60
2022-09-06T10:01:05.877Z,34.40
2022-09-06T10:02:05.787Z,33.97
2022-09-06T10:03:05.796Z,33.82
2022-09-06T10:05:07.092Z,33.63
2022-09-06T10:08:05.711Z,33.26
2022-09-06T10:09:05.684Z,32.97
2022-09-06T10:10:05.676Z,32.75
2022-09-06T10:11:05.674Z,32.20
2022-09-06T10:12:05.666Z,31.97
2022-09-06T10:13:05.694Z,31.78
2022-09-06T10:14:05.657Z,31.50
2022-09-06T10:15:07.278Z,31.32
2022-09-06T10:16:05.717Z,31.18
2022-09-06T10:17:05.695Z,30.95
2022-09-06T10:18:05.604Z,30.91
2022-09-06T10:19:05.597Z,30.86
2022-09-06T10:20:05.596Z,30.95
2022-09-06T10:21:05.582Z,30.96
2022-09-06T10:22:05.555Z,31.04
2022-09-06T10:23:05.543Z,31.10
2022-09-06T10:25:06.516Z,31.22
2022-09-06T10:26:05.546Z,31.23
2022-09-06T10:27:05.486Z,31.20
2022-09-06T10:28:11.451Z,31.15
2022-09-06T10:29:06.487Z,31.18
2022-09-06T10:30:05.457Z,31.17
2022-09-06T10:31:05.518Z,31.14
2022-09-06T10:32:05.438Z,31.20
2022-09-06T10:33:05.466Z,31.18
2022-09-06T10:34:05.467Z,31.28
2022-09-06T10:35:05.433Z,31.20
2022-09-06T10:36:05.453Z,31.14
2022-09-06T10:37:05.418Z,31.10
2022-09-06T10:38:05.412Z,31.18
2022-09-06T10:39:05.419Z,31.20
2022-09-06T10:40:05.428Z,31.41
2022-09-06T10:41:05.397Z,31.48
2022-09-06T10:42:05.364Z,31.41
2022-09-06T10:43:05.330Z,31.42
2022-09-06T10:44:05.320Z,31.55
2022-09-06T10:45:05.318Z,31.59
2022-09-06T10:46:05.387Z,31.67
2022-09-06T10:47:05.317Z,31.57
2022-09-06T10:48:05.290Z,31.63
2022-09-06T10:49:05.300Z,31.63
2022-09-06T10:50:05.283Z,31.70
2022-09-06T10:51:05.292Z,31.89
2022-09-06T10:52:05.277Z,32.05
2022-09-06T10:53:05.263Z,32.23
2022-09-06T10:54:05.267Z,32.35
2022-09-06T10:55:05.242Z,32.51
2022-09-06T10:56:05.220Z,32.79
2022-09-06T10:57:05.309Z,32.94
2022-09-06T10:58:20.938Z,33.10
2022-09-06T11:00:06.177Z,33.31
2022-09-06T11:01:05.183Z,33.48
2022-09-06T11:02:05.254Z,33.65
2022-09-06T11:04:08.025Z,33.81
2022-09-06T11:06:06.134Z,34.18
2022-09-06T11:07:05.086Z,34.35
2022-09-06T11:09:06.093Z,35.01
2022-09-06T11:10:05.063Z,35.50
2022-09-06T11:11:05.068Z,36.01
2022-09-06T11:12:05.084Z,36.62
2022-09-06T11:13:05.524Z,36.82
2022-09-06T11:14:05.782Z,37.11
2022-09-06T11:15:04.995Z,37.31
2022-09-06T11:16:05.042Z,37.47
2022-09-06T11:17:04.976Z,37.64
2022-09-06T11:18:05.564Z,37.78
2022-09-06T11:19:04.965Z,37.94
2022-09-06T11:20:04.967Z,38.28
2022-09-06T11:21:04.975Z,38.42
2022-09-06T11:22:04.946Z,38.57
2022-09-06T11:23:04.917Z,38.75
2022-09-06T11:24:04.906Z,38.60
2022-09-06T11:25:05.076Z,38.68
2022-09-06T11:26:04.895Z,38.79
2022-09-06T11:27:04.887Z,38.47
2022-09-06T11:28:04.866Z,38.20
2022-09-06T11:29:04.866Z,38.25
2022-09-06T11:30:04.837Z,38.10
2022-09-06T11:31:04.884Z,37.78
2022-09-06T11:32:20.056Z,37.78
2022-09-06T11:33:05.831Z,37.64
2022-09-06T11:34:04.807Z,37.80
2022-09-06T11:35:04.808Z,37.95
2022-09-06T11:36:04.784Z,38.14
2022-09-06T11:37:04.790Z,37.90
2022-09-06T11:38:04.785Z,37.72
2022-09-06T11:39:04.760Z,37.60
2022-09-06T11:41:07.230Z,38.12
2022-09-06T11:42:04.729Z,38.41
2022-09-06T11:43:04.724Z,38.44
2022-09-06T11:44:04.701Z,38.69
2022-09-06T11:45:04.709Z,38.73
2022-09-06T11:46:04.695Z,38.90
2022-09-06T11:47:04.691Z,39.03
2022-09-06T11:48:04.650Z,39.00
2022-09-06T11:49:04.654Z,38.96
2022-09-06T11:50:04.641Z,39.19
2022-09-06T11:51:04.641Z,39.34
2022-09-06T11:52:04.641Z,39.49
2022-09-06T11:53:04.632Z,39.64
2022-09-06T11:54:04.602Z,39.70
2022-09-06T11:55:04.592Z,39.88
2022-09-06T11:56:04.573Z,40.17
2022-09-06T11:57:04.592Z,40.42
2022-09-06T11:58:04.634Z,40.59
2022-09-06T11:59:04.582Z,40.61
2022-09-06T12:00:04.554Z,40.67
2022-09-06T12:01:04.533Z,40.31
2022-09-06T12:02:04.543Z,40.26
2022-09-06T12:04:06.942Z,39.97
2022-09-06T12:05:04.522Z,40.12
2022-09-06T12:06:04.494Z,40.31
2022-09-06T12:07:04.507Z,40.69
2022-09-06T12:08:04.460Z,41.24
2022-09-06T12:09:04.465Z,41.70
2022-09-06T12:10:04.448Z,42.05
2022-09-06T12:11:04.465Z,42.06
2022-09-06T12:12:04.434Z,42.06
2022-09-06T12:13:04.423Z,42.07
2022-09-06T12:14:04.434Z,42.00
2022-09-06T12:15:04.417Z,42.05
2022-09-06T12:16:04.470Z,42.47
2022-09-06T12:17:04.403Z,42.63
2022-09-06T12:18:04.396Z,42.73
2022-09-06T12:19:04.427Z,42.84
2022-09-06T12:20:04.327Z,42.97
2022-09-06T12:21:04.339Z,42.99
2022-09-06T12:22:04.310Z,42.87
2022-09-06T12:23:04.300Z,43.11
2022-09-06T12:24:04.289Z,43.16
2022-09-06T12:25:04.318Z,43.19
2022-09-06T12:26:04.298Z,43.15
2022-09-06T12:27:04.309Z,42.97
2022-09-06T12:28:04.289Z,42.93
2022-09-06T12:29:04.260Z,43.16
2022-09-06T12:30:04.321Z,42.97
2022-09-06T12:31:04.368Z,42.56
2022-09-06T12:32:04.261Z,42.56
2022-09-06T12:33:04.231Z,42.52
2022-09-06T12:34:04.202Z,42.25
2022-09-06T12:36:07.775Z,42.71
2022-09-06T12:37:04.191Z,42.84
2022-09-06T12:38:04.170Z,42.82
2022-09-06T12:39:04.181Z,43.12
2022-09-06T12:40:04.308Z,43.35
2022-09-06T12:41:04.253Z,43.76
2022-09-06T12:42:04.161Z,44.14
2022-09-06T12:43:04.161Z,44.13
2022-09-06T12:44:04.162Z,43.87
2022-09-06T12:45:04.129Z,44.11
2022-09-06T12:46:04.348Z,44.38
2022-09-06T12:47:04.086Z,44.59
2022-09-06T12:48:04.090Z,44.75
2022-09-06T12:49:04.054Z,44.76
2022-09-06T12:50:04.113Z,44.83
2022-09-06T12:51:04.034Z,44.82
2022-09-06T12:52:04.035Z,44.91
2022-09-06T12:53:04.054Z,44.99
2022-09-06T12:54:04.025Z,45.14
2022-09-06T12:55:04.024Z,45.29
2022-09-06T12:56:04.013Z,45.47
2022-09-06T12:57:03.995Z,45.36
2022-09-06T12:58:03.997Z,45.32
2022-09-06T12:59:04.002Z,45.39
2022-09-06T13:00:03.977Z,45.52
2022-09-06T13:01:03.985Z,45.70
2022-09-06T13:02:04.034Z,45.66
2022-09-06T13:03:04.138Z,45.40
2022-09-06T13:04:03.988Z,45.10
2022-09-06T13:05:03.956Z,45.04
2022-09-06T13:06:03.935Z,44.99
2022-09-06T13:07:03.915Z,45.20
2022-09-06T13:08:03.937Z,45.37
2022-09-06T13:09:03.907Z,45.08
2022-09-06T13:10:03.914Z,44.96
2022-09-06T13:11:03.877Z,45.01
2022-09-06T13:12:03.876Z,44.95
2022-09-06T13:13:04.133Z,45.01
2022-09-06T13:14:03.850Z,44.95
2022-09-06T13:15:03.830Z,44.00
2022-09-06T13:16:03.816Z,42.68
2022-09-06T13:17:03.799Z,43.47
2022-09-06T13:18:03.791Z,44.11
2022-09-06T13:19:03.781Z,44.64
2022-09-06T13:20:03.809Z,44.62
2022-09-06T13:21:03.770Z,44.38
2022-09-06T13:22:03.780Z,44.53
2022-09-06T13:23:03.793Z,43.88